Time,TemperatureF,DewpointF,PressureIn,WindDirection,WindDirectionDegrees,WindSpeedMPH,WindSpeedGustMPH,Humidity,HourlyPrecipIn,Conditions,Clouds,dailyrainin,SoftwareType,DateUTC
2013-07-16 06:11:00,73.0,72.0,-100.00,NNW,330,0.0,0.0,95,-99.99,,,-99.99,,2013-07-16 11:11:00,
2013-07-16 06:22:00,73.0,72.0,-100.00,NNW,330,0.0,0.0,95,-99.99,,,-99.99,,2013-07-16 11:22:00,
2013-07-16 06:42:00,74.0,72.0,-100.00,ENE,70,0.0,0.0,93,-99.99,,,-99.99,,2013-07-16 11:42:00,
2013-07-16 06:53:00,74.0,72.0,-100.00,ENE,70,0.0,0.0,93,-99.99,,,-99.99,,2013-07-16 11:53:00,
2013-07-16 07:22:00,76.0,73.0,-100.00,SE,125,0.0,0.0,89,-99.99,,,-99.99,,2013-07-16 12:22:00,
2013-07-16 07:43:00,77.0,74.0,-100.00,SE,125,1.0,6.0,89,-99.99,,,-99.99,,2013-07-16 12:43:00,
2013-07-16 07:53:00,77.0,74.0,-100.00,SE,125,1.0,6.0,89,-99.99,,,-99.99,,2013-07-16 12:53:00,
2013-07-16 08:22:00,81.0,74.0,-100.00,North,10,0.0,0.0,81,-99.99,,,-99.99,,2013-07-16 13:22:00,
2013-07-16 08:52:00,82.0,75.0,-100.00,South,175,0.0,4.0,79,-99.99,,,-99.99,,2013-07-16 13:52:00,
2013-07-16 09:21:00,83.0,75.0,-100.00,SSW,195,0.0,5.0,79,-99.99,,,-99.99,,2013-07-16 14:21:00,
2013-07-16 09:32:00,83.0,75.0,-100.00,SSW,195,0.0,5.0,79,-99.99,,,-99.99,,2013-07-16 14:32:00,
2013-07-16 09:43:00,86.0,76.0,-100.00,SSW,205,0.0,0.0,72,-99.99,,,-99.99,,2013-07-16 14:43:00,
2013-07-16 09:52:00,86.0,76.0,-100.00,SSW,205,0.0,0.0,72,-99.99,,,-99.99,,2013-07-16 14:52:00,
2013-07-16 10:11:00,85.0,75.0,-100.00,West,265,0.0,6.0,70,-99.99,,,-99.99,,2013-07-16 15:11:00,
2013-07-16 10:22:00,85.0,75.0,-100.00,West,265,0.0,6.0,70,-99.99,,,-99.99,,2013-07-16 15:22:00,
2013-07-16 10:53:00,87.0,74.0,-100.00,SSW,210,0.0,5.0,66,-99.99,,,-99.99,,2013-07-16 15:53:00,
2013-07-16 11:11:00,86.0,75.0,-100.00,SW,235,0.0,4.0,69,-99.99,,,-99.99,,2013-07-16 16:11:00,
2013-07-16 11:22:00,86.0,75.0,-100.00,SW,235,0.0,4.0,69,-99.99,,,-99.99,,2013-07-16 16:22:00,
2013-07-16 11:43:00,88.0,72.0,-100.00,NW,305,0.0,0.0,61,-99.99,,,-99.99,,2013-07-16 16:43:00,
2013-07-16 11:52:00,88.0,72.0,-100.00,NW,305,0.0,0.0,61,-99.99,,,-99.99,,2013-07-16 16:52:00,
2013-07-16 12:22:00,86.0,74.0,-100.00,SSW,200,0.0,0.0,69,-99.99,,,-99.99,,2013-07-16 17:22:00,
2013-07-16 12:33:00,86.0,74.0,-100.00,SSW,200,0.0,0.0,69,-99.99,,,-99.99,,2013-07-16 17:33:00,
2013-07-16 12:43:00,87.0,76.0,-100.00,SW,235,0.0,0.0,70,-99.99,,,-99.99,,2013-07-16 17:43:00,
2013-07-16 12:53:00,87.0,76.0,-100.00,SW,235,0.0,0.0,70,-99.99,,,-99.99,,2013-07-16 17:53:00,
2013-07-16 13:22:00,91.0,76.0,-100.00,WSW,250,0.0,4.0,63,-99.99,,,-99.99,,2013-07-16 18:22:00,
2013-07-16 13:32:00,88.0,75.0,-100.00,West,270,0.0,0.0,65,-99.99,,,-99.99,,2013-07-16 18:32:00,
2013-07-16 13:43:00,87.0,74.0,-100.00,South,185,0.0,0.0,67,-99.99,,,-99.99,,2013-07-16 18:43:00,
2013-07-16 13:53:00,87.0,74.0,-100.00,South,185,0.0,0.0,67,-99.99,,,-99.99,,2013-07-16 18:53:00,
2013-07-16 14:22:00,90.0,74.0,-100.00,South,170,0.0,0.0,61,-99.99,,,-99.99,,2013-07-16 19:22:00,
2013-07-16 14:43:00,91.0,73.0,-100.00,SW,215,0.0,2.0,55,-99.99,,,-99.99,,2013-07-16 19:43:00,
2013-07-16 14:52:00,91.0,73.0,-100.00,SW,215,0.0,2.0,55,-99.99,,,-99.99,,2013-07-16 19:52:00,
2013-07-16 15:22:00,91.0,74.0,-100.00,South,190,0.0,4.0,57,-99.99,,,-99.99,,2013-07-16 20:22:00,
2013-07-16 15:43:00,90.0,73.0,-100.00,SW,220,0.0,6.0,58,-99.99,,,-99.99,,2013-07-16 20:43:00,
2013-07-16 15:52:00,90.0,73.0,-100.00,SW,220,0.0,6.0,58,-99.99,,,-99.99,,2013-07-16 20:52:00,
2013-07-16 16:01:00,90.0,73.0,-100.00,SW,220,0.0,6.0,58,-99.99,,,-99.99,,2013-07-16 21:01:00,
2013-07-16 16:22:00,89.0,74.0,-100.00,SSE,150,0.0,6.0,62,-99.99,,,-99.99,,2013-07-16 21:22:00,
2013-07-16 16:32:00,89.0,74.0,-100.00,SSE,150,0.0,6.0,62,-99.99,,,-99.99,,2013-07-16 21:32:00,
2013-07-16 16:52:00,90.0,73.0,-100.00,ESE,115,1.0,9.0,59,-99.99,,,-99.99,,2013-07-16 21:52:00,
2013-07-16 17:01:00,87.0,75.0,-100.00,South,190,0.0,6.0,68,-99.99,,,-99.99,,2013-07-16 22:01:00,
2013-07-16 17:22:00,89.0,74.0,-100.00,SSE,150,0.0,0.0,61,-99.99,,,-99.99,,2013-07-16 22:22:00,
2013-07-16 17:43:00,89.0,74.0,-100.00,SSW,205,0.0,5.0,62,-99.99,,,-99.99,,2013-07-16 22:43:00,
2013-07-16 17:52:00,89.0,74.0,-100.00,SSW,205,0.0,5.0,62,-99.99,,,-99.99,,2013-07-16 22:52:00,
2013-07-16 18:22:00,88.0,74.0,-100.00,SSE,165,0.0,1.0,63,-99.99,,,-99.99,,2013-07-16 23:22:00,
2013-07-16 18:32:00,88.0,74.0,-100.00,SE,145,0.0,0.0,63,-99.99,,,-99.99,,2013-07-16 23:32:00,
2013-07-16 18:43:00,88.0,73.0,-100.00,SE,145,0.0,3.0,63,-99.99,,,-99.99,,2013-07-16 23:43:00,
2013-07-16 18:52:00,88.0,73.0,-100.00,SE,145,0.0,3.0,63,-99.99,,,-99.99,,2013-07-16 23:52:00,
2013-07-16 19:11:00,88.0,75.0,-100.00,SE,135,0.0,0.0,66,-99.99,,,-99.99,,2013-07-17 00:11:00,
2013-07-16 19:22:00,88.0,75.0,-100.00,SE,135,0.0,0.0,66,-99.99,,,-99.99,,2013-07-17 00:22:00,
2013-07-16 19:33:00,88.0,75.0,-100.00,SE,135,0.0,0.0,66,-99.99,,,-99.99,,2013-07-17 00:33:00,
2013-07-16 19:52:00,85.0,74.0,-100.00,SSE,160,0.0,0.0,70,-99.99,,,-99.99,,2013-07-17 00:52:00,
2013-07-16 20:22:00,83.0,75.0,-100.00,SSE,160,0.0,0.0,75,-99.99,,,-99.99,,2013-07-17 01:22:00,
2013-07-16 20:43:00,83.0,74.0,-100.00,SE,145,0.0,0.0,74,-99.99,,,-99.99,,2013-07-17 01:43:00,
2013-07-16 20:53:00,83.0,74.0,-100.00,SE,145,0.0,0.0,74,-99.99,,,-99.99,,2013-07-17 01:53:00,
2013-07-16 21:11:00,82.0,74.0,-100.00,SSE,155,0.0,0.0,77,-99.99,,,-99.99,,2013-07-17 02:11:00,
2013-07-16 21:22:00,82.0,74.0,-100.00,SSE,155,0.0,0.0,77,-99.99,,,-99.99,,2013-07-17 02:22:00,
2013-07-16 21:32:00,81.0,73.0,-100.00,SE,135,0.0,0.0,78,-99.99,,,-99.99,,2013-07-17 02:32:00,
2013-07-16 21:53:00,81.0,74.0,-100.00,SE,145,0.0,0.0,80,-99.99,,,-99.99,,2013-07-17 02:53:00,
2013-07-16 22:22:00,80.0,74.0,-100.00,SE,140,0.0,0.0,82,-99.99,,,-99.99,,2013-07-17 03:22:00,
2013-07-16 22:53:00,80.0,74.0,-100.00,SE,135,0.0,0.0,82,-99.99,,,-99.99,,2013-07-17 03:53:00,
2013-07-16 23:22:00,79.0,74.0,-100.00,SE,140,0.0,0.0,84,-99.99,,,-99.99,,2013-07-17 04:22:00,
2013-07-16 23:53:00,78.0,74.0,-100.00,SE,135,0.0,0.0,86,-99.99,,,-99.99,,2013-07-17 04:53:00,